01:13 Rennrad Innsbruck ARZ - Radweg - Voels - Hatting - Pettnau - Moetz
Ort Innsbruck Datum 15.09.2016 17:12:35
Kategorie Rennrad
Distanz 40,13 Kilometer Steigung 156,0 Meter Gefälle -98,0 Meter
Gesamt Zeit 01:15:34 Aktiv 01:12:53 Pause 00:02:41
Durchs. Tempo 33,0 km/h Tempo max. 47,1 km/h Tempo min. 21,0 km/h
Kalorien 0 Durchs. HF 130 BPM HF max. 152 BPM
Wetter 24 °C Clear Min/Max: 23,1 °C/24,3 °C; Druck: 1011,6 mbar; Rel. Feuchte: 38,8%; Taupunkt: 9,0 °C; Windgeschwindigkeit: 10,6 km/h; Niederschlag: 0,0mm
Ausrüstung Bontrager - RXL Road
Continental - Grand Prix 4000 S II 25-622
Poison - Rennrad
Shimano - HG CN-7901 Dura Ace
Notiz Innsbruck ARZ - Radweg - Voels - Hatting - Pettnau - Moetz ... trocken, böiger, wechselnder Wind, locker bis flott ... garmin connect
Splits
Distanz (km) Gesamt Zeit Split Zeit Split Tempo Split Tempo Höhenprofil (m)
1,00 00:01:56 00:01:56 00:01:57 30,8 -3,60
2,00 00:04:16 00:02:19 00:02:19 25,9 -3,87
3,00 00:06:12 00:01:56 00:01:56 30,9 2,15
4,00 00:08:05 00:01:53 00:01:53 31,8 1,83
5,00 00:09:53 00:01:48 00:01:48 33,3 3,60
6,00 00:11:58 00:02:04 00:02:04 28,9 10,34
7,00 00:13:51 00:01:53 00:01:53 31,8 -4,45
8,00 00:15:40 00:01:49 00:01:49 33,0 0,88
9,00 00:17:23 00:01:42 00:01:43 35,0 3,56
10,00 00:19:19 00:01:56 00:01:56 31,0 15,24
11,00 00:21:21 00:02:02 00:02:03 29,3 11,81
12,00 00:22:50 00:01:28 00:01:29 40,5 -17,53
13,00 00:24:18 00:01:28 00:01:28 40,8 -6,26
14,00 00:25:59 00:01:40 00:01:41 35,7 5,49
15,00 00:27:45 00:01:45 00:01:45 34,2 0,59
16,00 00:29:27 00:01:42 00:01:43 35,1 1,20
17,00 00:31:16 00:01:48 00:01:49 33,1 5,46
18,00 00:33:22 00:02:06 00:02:06 28,6 13,60
19,00 00:35:02 00:01:40 00:01:41 35,8 -7,98
20,00 00:36:34 00:01:31 00:01:31 39,5 -6,50
21,00 00:38:27 00:01:53 00:01:54 31,6 3,73
22,00 00:40:12 00:01:44 00:01:44 34,5 0,70
23,00 00:41:57 00:01:45 00:01:45 34,1 0,00
24,00 00:43:45 00:01:48 00:01:48 33,3 8,23
25,00 00:45:36 00:01:50 00:01:50 32,7 -3,39
26,00 00:47:30 00:01:54 00:01:55 31,3 3,63
27,00 00:49:20 00:01:49 00:01:50 32,8 0,96
28,00 00:51:09 00:01:48 00:01:49 33,1 -0,47
29,00 00:52:59 00:01:49 00:01:50 32,8 6,62
30,00 00:54:59 00:02:00 00:02:00 30,0 -2,04
31,00 00:56:38 00:01:39 00:01:39 36,3 0,55
32,00 00:58:14 00:01:36 00:01:36 37,4 2,62
33,00 00:59:52 00:01:37 00:01:38 36,8 7,32
34,00 01:01:37 00:01:45 00:01:45 34,2 1,12
35,00 01:03:17 00:01:39 00:01:40 36,1 1,74
36,00 01:05:06 00:01:48 00:01:49 33,1 -1,65
37,00 01:06:56 00:01:50 00:01:51 32,5 3,48
38,00 01:08:46 00:01:49 00:01:49 33,0 1,30
39,00 01:10:33 00:01:47 00:01:48 33,4 0,07
40,00 01:12:28 00:01:55 00:01:55 31,3 8,77
40,15 01:12:53 00:00:24 00:02:40 22,5 1,09